createdAt,value
2018-12-27T00:02:13.581Z,23.62
2018-12-27T00:04:53.283Z,25.75
2018-12-27T00:07:33.186Z,26.42
2018-12-27T00:10:13.293Z,25.70
2018-12-27T00:12:53.162Z,27.37
2018-12-27T00:15:33.286Z,39.05
2018-12-27T00:18:13.613Z,27.00
2018-12-27T00:20:53.727Z,24.85
2018-12-27T00:23:34.104Z,25.85
2018-12-27T00:26:14.383Z,24.65
2018-12-27T00:28:54.619Z,22.95
2018-12-27T00:31:34.366Z,25.20
2018-12-27T00:34:14.954Z,26.33
2018-12-27T00:36:55.024Z,27.48
2018-12-27T00:39:35.105Z,25.65
2018-12-27T00:42:15.417Z,26.73
2018-12-27T00:44:55.490Z,24.52
2018-12-27T00:47:35.806Z,25.02
2018-12-27T00:50:15.753Z,25.05
2018-12-27T00:52:55.298Z,25.95
2018-12-27T00:55:35.342Z,26.07
2018-12-27T00:58:15.216Z,25.88
2018-12-27T01:00:55.126Z,24.65
2018-12-27T01:03:35.458Z,28.40
2018-12-27T01:06:15.230Z,29.55
2018-12-27T01:08:55.751Z,27.48
2018-12-27T01:11:35.667Z,26.65
2018-12-27T01:14:16.086Z,28.60
2018-12-27T01:16:56.094Z,44.15
2018-12-27T01:19:36.004Z,36.93
2018-12-27T01:22:16.186Z,29.82
2018-12-27T01:24:56.511Z,29.37
2018-12-27T01:27:36.620Z,24.30
2018-12-27T01:30:16.803Z,26.10
2018-12-27T01:32:56.690Z,25.10
2018-12-27T01:35:36.774Z,29.37
2018-12-27T01:38:16.530Z,27.00
2018-12-27T01:40:56.742Z,28.67
2018-12-27T01:43:24.152Z,27.98
2018-12-27T01:46:10.853Z,25.10
2018-12-27T01:48:57.898Z,24.50
2018-12-27T01:51:44.993Z,23.25
2018-12-27T01:54:32.004Z,21.02
2018-12-27T01:57:19.039Z,22.60
2018-12-27T01:59:59.419Z,21.80
2018-12-27T02:02:39.511Z,21.02
2018-12-27T02:05:19.874Z,22.55
2018-12-27T02:07:59.410Z,22.02
2018-12-27T02:10:39.994Z,22.30
2018-12-27T02:13:19.684Z,24.43
2018-12-27T02:15:59.641Z,20.50
2018-12-27T02:18:40.146Z,21.87
2018-12-27T02:21:20.139Z,23.42
2018-12-27T02:24:00.151Z,22.95
2018-12-27T02:26:40.029Z,22.30
2018-12-27T02:29:19.614Z,22.30
2018-12-27T02:31:59.982Z,22.58
2018-12-27T02:34:39.915Z,21.45
2018-12-27T02:37:20.398Z,23.75
2018-12-27T02:40:00.221Z,22.15
2018-12-27T02:42:39.895Z,22.25
2018-12-27T02:45:20.242Z,32.45
2018-12-27T02:48:00.723Z,31.42
2018-12-27T02:50:40.741Z,29.80
2018-12-27T02:53:20.654Z,37.75
2018-12-27T02:56:01.011Z,43.70
2018-12-27T02:58:40.927Z,37.13
2018-12-27T03:01:21.027Z,37.93
2018-12-27T03:04:01.299Z,28.25
2018-12-27T03:06:41.429Z,25.70
2018-12-27T03:09:21.424Z,27.07
2018-12-27T03:12:00.953Z,24.92
2018-12-27T03:14:40.406Z,25.50
2018-12-27T03:17:20.478Z,22.82
2018-12-27T03:20:00.755Z,28.38
2018-12-27T03:22:41.148Z,24.20
2018-12-27T03:25:20.989Z,25.30
2018-12-27T03:28:01.410Z,22.40
2018-12-27T03:30:40.888Z,22.73
2018-12-27T03:33:21.178Z,23.15
2018-12-27T03:36:00.685Z,24.43
2018-12-27T03:38:40.186Z,27.50
2018-12-27T03:41:20.673Z,34.40
2018-12-27T03:44:00.557Z,24.52
2018-12-27T03:46:40.270Z,22.35
2018-12-27T03:49:20.959Z,23.02
2018-12-27T03:52:00.732Z,21.97
2018-12-27T03:54:40.792Z,24.55
2018-12-27T03:57:20.843Z,24.95
2018-12-27T04:00:00.771Z,21.20
2018-12-27T04:02:40.746Z,25.52
2018-12-27T04:05:21.026Z,26.05
2018-12-27T04:08:01.069Z,23.75
2018-12-27T04:10:40.895Z,22.00
2018-12-27T04:13:20.804Z,21.25
2018-12-27T04:16:01.301Z,22.30
2018-12-27T04:18:41.170Z,22.27
2018-12-27T04:21:21.246Z,21.02
2018-12-27T04:24:01.064Z,22.58
2018-12-27T04:26:41.046Z,22.60
2018-12-27T04:29:21.103Z,22.45
2018-12-27T04:32:01.342Z,25.05
2018-12-27T04:34:41.749Z,22.82
2018-12-27T04:37:21.917Z,24.20
2018-12-27T04:40:02.013Z,24.10
2018-12-27T04:42:42.247Z,24.85
2018-12-27T04:45:21.993Z,22.65
2018-12-27T04:48:02.081Z,23.22
2018-12-27T04:50:42.084Z,22.17
2018-12-27T04:53:21.853Z,22.05
2018-12-27T04:56:02.110Z,23.45
2018-12-27T04:58:42.023Z,22.55
2018-12-27T05:01:21.733Z,22.32
2018-12-27T05:04:01.739Z,31.73
2018-12-27T05:06:42.082Z,29.85
2018-12-27T05:09:21.852Z,23.32
2018-12-27T05:12:02.392Z,24.18
2018-12-27T05:14:42.462Z,23.57
2018-12-27T05:17:22.801Z,23.50
2018-12-27T05:20:02.570Z,22.87
2018-12-27T05:22:42.681Z,27.15
2018-12-27T05:25:22.988Z,26.37
2018-12-27T05:28:02.899Z,26.65
2018-12-27T05:30:43.041Z,25.30
2018-12-27T05:33:23.040Z,24.55
2018-12-27T05:36:03.322Z,23.62
2018-12-27T05:38:43.198Z,23.47
2018-12-27T05:41:23.206Z,22.95
2018-12-27T05:44:03.543Z,23.07
2018-12-27T05:46:43.392Z,22.98
2018-12-27T05:49:23.329Z,22.62
2018-12-27T05:52:03.290Z,23.20
2018-12-27T05:54:42.963Z,23.07
2018-12-27T05:57:22.808Z,23.25
2018-12-27T06:00:02.976Z,24.07
2018-12-27T06:02:43.396Z,28.77
2018-12-27T06:05:23.781Z,31.05
2018-12-27T06:08:03.286Z,27.77
2018-12-27T06:10:43.743Z,25.60
2018-12-27T06:13:23.988Z,24.55
2018-12-27T06:16:04.406Z,21.35
2018-12-27T06:18:44.863Z,27.93
2018-12-27T06:21:24.544Z,24.82
2018-12-27T06:24:04.475Z,26.93
2018-12-27T06:26:44.880Z,24.02
2018-12-27T06:29:24.779Z,24.90
2018-12-27T06:32:05.035Z,24.45
2018-12-27T06:34:45.113Z,24.60
2018-12-27T06:37:25.213Z,23.55
2018-12-27T06:40:05.381Z,23.32
2018-12-27T06:42:45.373Z,23.38
2018-12-27T06:45:25.542Z,28.00
2018-12-27T06:48:06.058Z,30.12
2018-12-27T06:50:46.327Z,27.93
2018-12-27T06:53:27.841Z,28.60
2018-12-27T06:56:08.050Z,25.45
2018-12-27T06:58:47.922Z,23.18
2018-12-27T07:01:28.037Z,21.90
2018-12-27T07:04:08.248Z,22.17
2018-12-27T07:06:48.576Z,21.55
2018-12-27T07:09:28.543Z,21.02
2018-12-27T07:12:08.162Z,22.90
2018-12-27T07:14:48.602Z,22.77
2018-12-27T07:17:28.641Z,20.72
2018-12-27T07:20:08.659Z,23.32
2018-12-27T07:22:49.625Z,24.72
2018-12-27T07:25:30.010Z,21.50
2018-12-27T07:28:09.780Z,23.42
2018-12-27T07:30:50.068Z,22.02
2018-12-27T07:33:29.717Z,22.67
2018-12-27T07:36:09.957Z,22.32
2018-12-27T07:38:50.187Z,21.55
2018-12-27T07:41:30.459Z,22.50
2018-12-27T07:44:10.943Z,23.73
2018-12-27T07:46:50.542Z,20.95
2018-12-27T07:49:30.557Z,21.77
2018-12-27T07:52:10.314Z,21.27
2018-12-27T07:54:50.175Z,19.40
2018-12-27T07:57:30.833Z,19.27
2018-12-27T08:00:10.698Z,22.40
2018-12-27T08:02:51.001Z,21.07
2018-12-27T08:05:31.163Z,20.32
2018-12-27T08:08:11.752Z,19.23
2018-12-27T08:10:52.149Z,21.82
2018-12-27T08:13:31.778Z,19.25
2018-12-27T08:16:12.407Z,19.67
2018-12-27T08:18:52.489Z,19.37
2018-12-27T08:21:32.142Z,22.10
2018-12-27T08:24:13.072Z,22.52
2018-12-27T08:26:53.403Z,24.00
2018-12-27T08:29:33.052Z,24.30
2018-12-27T08:32:13.488Z,21.07
2018-12-27T08:34:53.209Z,22.25
2018-12-27T08:37:33.447Z,24.80
2018-12-27T08:40:13.614Z,21.52
2018-12-27T08:42:53.503Z,24.57
2018-12-27T08:45:33.834Z,23.05
2018-12-27T08:48:13.982Z,21.65
2018-12-27T08:50:53.872Z,22.17
2018-12-27T08:53:33.883Z,23.92
2018-12-27T08:56:14.054Z,22.35
2018-12-27T08:58:54.143Z,23.25
2018-12-27T09:01:34.411Z,23.00
2018-12-27T09:04:14.299Z,22.42
2018-12-27T09:06:53.993Z,23.35
2018-12-27T09:09:33.906Z,22.98
2018-12-27T09:12:14.307Z,25.75
2018-12-27T09:14:54.145Z,25.43
2018-12-27T09:17:34.185Z,23.87
2018-12-27T09:20:14.334Z,21.60
2018-12-27T09:22:54.360Z,21.70
2018-12-27T09:25:34.306Z,22.98
2018-12-27T09:28:14.041Z,23.00
2018-12-27T09:30:54.654Z,24.43
2018-12-27T09:33:34.643Z,22.70
2018-12-27T09:36:14.891Z,24.25
2018-12-27T09:38:54.944Z,24.80
2018-12-27T09:41:34.859Z,22.52
2018-12-27T09:44:14.803Z,21.15
2018-12-27T09:46:55.082Z,20.23
2018-12-27T09:49:35.312Z,21.93
2018-12-27T09:52:15.158Z,20.90
2018-12-27T09:54:55.219Z,20.30
2018-12-27T09:57:35.340Z,18.90
2018-12-27T10:00:15.405Z,20.57
2018-12-27T10:02:55.236Z,20.40
2018-12-27T10:05:35.699Z,20.37
2018-12-27T10:08:16.207Z,17.60
2018-12-27T10:10:56.082Z,20.92
2018-12-27T10:13:36.261Z,18.27
2018-12-27T10:16:16.107Z,19.20
2018-12-27T10:18:55.994Z,20.85
2018-12-27T10:21:36.317Z,21.05
2018-12-27T10:24:16.438Z,21.90
2018-12-27T10:26:56.448Z,20.52
2018-12-27T10:29:36.296Z,19.62
2018-12-27T10:32:16.782Z,21.75
2018-12-27T10:34:56.493Z,21.37
2018-12-27T10:40:55.418Z,21.90
2018-12-27T10:43:34.742Z,21.40
2018-12-27T10:46:15.118Z,21.05
2018-12-27T10:48:55.066Z,21.87
2018-12-27T10:51:34.822Z,20.80
2018-12-27T10:54:14.973Z,19.85
2018-12-27T10:56:55.069Z,19.32
2018-12-27T10:59:38.005Z,20.20
2018-12-27T11:02:18.074Z,22.15
2018-12-27T11:04:57.880Z,19.37
2018-12-27T11:07:38.195Z,19.95
2018-12-27T11:10:18.261Z,22.30
2018-12-27T11:12:58.246Z,23.00
2018-12-27T11:15:37.892Z,24.87
2018-12-27T11:18:18.194Z,22.90
2018-12-27T11:20:58.165Z,21.02
2018-12-27T11:23:38.518Z,22.30
2018-12-27T11:26:18.534Z,23.20
2018-12-27T11:28:58.499Z,22.07
2018-12-27T11:31:37.758Z,20.15
2018-12-27T11:34:18.011Z,23.12
2018-12-27T11:36:58.274Z,21.82
2018-12-27T11:39:38.361Z,23.12
2018-12-27T11:42:18.834Z,22.45
2018-12-27T11:44:58.649Z,21.33
2018-12-27T11:47:38.896Z,21.30
2018-12-27T11:50:19.167Z,21.68
2018-12-27T11:52:58.845Z,22.90
2018-12-27T11:55:39.023Z,34.40
2018-12-27T11:58:18.898Z,28.23
2018-12-27T12:00:59.043Z,30.55
2018-12-27T12:03:39.266Z,28.57
2018-12-27T12:06:19.291Z,26.52
2018-12-27T12:08:59.754Z,24.10
2018-12-27T12:11:39.332Z,23.45
2018-12-27T12:14:19.694Z,23.30
2018-12-27T12:16:59.565Z,23.42
2018-12-27T12:19:39.531Z,23.30
2018-12-27T12:22:19.517Z,22.25
2018-12-27T12:24:59.687Z,21.05
2018-12-27T12:27:39.631Z,21.20
2018-12-27T12:30:19.803Z,21.80
2018-12-27T12:32:59.847Z,63.35
2018-12-27T12:35:39.826Z,22.70
2018-12-27T12:38:19.916Z,21.62
2018-12-27T12:40:59.979Z,22.60
2018-12-27T12:43:40.249Z,21.70
2018-12-27T12:46:20.279Z,25.62
2018-12-27T12:49:00.698Z,33.23
2018-12-27T12:51:40.735Z,36.75
2018-12-27T12:54:20.759Z,50.50
2018-12-27T12:57:00.743Z,113.10
2018-12-27T12:59:41.022Z,69.60
2018-12-27T13:02:20.982Z,24.85
2018-12-27T13:05:00.866Z,22.35
2018-12-27T13:07:40.779Z,20.08
2018-12-27T13:10:20.443Z,20.10
2018-12-27T13:13:00.490Z,19.60
2018-12-27T13:15:40.762Z,20.70
2018-12-27T13:18:20.918Z,19.17
2018-12-27T13:21:00.990Z,19.48
2018-12-27T13:23:40.923Z,19.42
2018-12-27T13:26:20.586Z,23.42
2018-12-27T13:29:00.807Z,20.60
2018-12-27T13:31:40.825Z,20.48
2018-12-27T13:34:20.608Z,22.15
2018-12-27T13:37:01.157Z,20.57
2018-12-27T13:39:41.491Z,21.60
2018-12-27T13:42:21.562Z,20.57
2018-12-27T13:45:01.571Z,22.55
2018-12-27T13:47:41.918Z,24.15
2018-12-27T13:50:22.262Z,22.22
2018-12-27T13:53:02.150Z,21.93
2018-12-27T13:55:42.482Z,25.30
2018-12-27T13:58:22.672Z,21.33
2018-12-27T14:01:02.729Z,20.85
2018-12-27T14:03:42.806Z,18.55
2018-12-27T14:06:23.362Z,19.73
2018-12-27T14:09:04.250Z,18.70
2018-12-27T14:11:44.143Z,18.12
2018-12-27T14:14:24.091Z,18.05
2018-12-27T14:17:04.366Z,16.60
2018-12-27T14:19:44.640Z,18.75
2018-12-27T14:22:25.523Z,16.70
2018-12-27T14:25:05.074Z,18.02
2018-12-27T14:30:53.988Z,16.12
2018-12-27T14:33:33.807Z,16.82
2018-12-27T14:36:14.339Z,16.30
2018-12-27T14:38:54.326Z,17.73
2018-12-27T14:41:34.080Z,16.97
2018-12-27T14:44:14.488Z,16.90
2018-12-27T14:46:54.364Z,18.02
2018-12-27T14:49:34.385Z,17.80
2018-12-27T14:52:14.908Z,17.82
2018-12-27T14:54:54.803Z,17.60
2018-12-27T14:57:34.846Z,17.90
2018-12-27T15:00:15.341Z,18.05
2018-12-27T15:02:55.514Z,19.02
2018-12-27T15:05:35.458Z,19.80
2018-12-27T15:11:23.826Z,17.25
2018-12-27T15:14:04.110Z,16.48
2018-12-27T15:16:45.006Z,17.00
2018-12-27T15:19:25.563Z,23.25
2018-12-27T15:22:05.371Z,32.05
2018-12-27T15:24:32.866Z,32.93
2018-12-27T15:27:19.891Z,31.85
2018-12-27T15:30:07.077Z,21.20
2018-12-27T15:32:54.404Z,20.68
2018-12-27T15:35:40.871Z,18.40
2018-12-27T15:38:28.126Z,18.00
2018-12-27T15:41:14.852Z,18.85
2018-12-27T15:44:01.548Z,17.82
2018-12-27T15:46:48.864Z,18.05
2018-12-27T15:49:35.887Z,17.73
2018-12-27T15:52:22.638Z,16.35
2018-12-27T15:55:09.751Z,19.98
2018-12-27T15:57:57.043Z,16.35
2018-12-27T16:00:39.014Z,18.12
2018-12-27T16:03:18.878Z,17.87
2018-12-27T16:05:58.568Z,17.10
2018-12-27T16:08:38.594Z,16.17
2018-12-27T16:11:18.789Z,16.95
2018-12-27T16:13:59.308Z,22.48
2018-12-27T16:16:39.593Z,21.37
2018-12-27T16:19:19.538Z,23.98
2018-12-27T16:22:00.045Z,22.73
2018-12-27T16:24:40.233Z,29.95
2018-12-27T16:27:20.195Z,25.77
2018-12-27T16:30:00.578Z,26.68
2018-12-27T16:32:40.794Z,33.30
2018-12-27T16:35:21.010Z,30.80
2018-12-27T16:41:06.180Z,19.60
2018-12-27T16:43:46.234Z,18.40
2018-12-27T16:46:26.141Z,19.27
2018-12-27T16:52:14.903Z,18.15
2018-12-27T16:54:54.802Z,18.35
2018-12-27T16:57:34.678Z,17.98
2018-12-27T17:00:14.975Z,19.67
2018-12-27T17:02:54.748Z,23.60
2018-12-27T17:05:35.483Z,28.85
2018-12-27T17:08:15.151Z,49.38
2018-12-27T17:10:55.479Z,37.73
2018-12-27T17:13:36.032Z,35.78
2018-12-27T17:16:15.937Z,31.65
2018-12-27T17:22:01.633Z,38.23
2018-12-27T17:24:41.803Z,35.92
2018-12-27T17:27:24.019Z,33.28
2018-12-27T17:30:03.812Z,35.98
2018-12-27T17:32:44.529Z,42.50
2018-12-27T17:35:24.481Z,40.85
2018-12-27T17:38:04.882Z,52.43
2018-12-27T17:40:32.334Z,53.23
2018-12-27T17:42:59.685Z,39.27
2018-12-27T17:45:47.010Z,33.63
2018-12-27T17:48:14.978Z,45.30
2018-12-27T17:51:02.530Z,46.53
2018-12-27T17:53:49.608Z,42.00
2018-12-27T17:56:36.987Z,38.83
2018-12-27T17:59:24.188Z,36.13
2018-12-27T18:02:04.823Z,27.37
2018-12-27T18:04:44.950Z,24.87
2018-12-27T18:07:30.510Z,21.25
2018-12-27T18:10:06.806Z,24.92
2018-12-27T18:16:06.103Z,19.95
2018-12-27T18:18:46.410Z,22.00
2018-12-27T18:24:19.339Z,25.55
2018-12-27T18:26:47.409Z,28.23
2018-12-27T18:29:34.135Z,29.85
2018-12-27T18:32:21.434Z,30.80
2018-12-27T18:37:57.631Z,31.30
2018-12-27T18:41:02.931Z,35.70
2018-12-27T18:43:50.084Z,35.80
2018-12-27T18:46:37.189Z,31.77
2018-12-27T18:49:24.002Z,24.43
2018-12-27T18:52:10.858Z,26.02
2018-12-27T18:54:58.290Z,26.97
2018-12-27T18:57:45.585Z,35.28
2018-12-27T19:00:25.954Z,37.40
2018-12-27T19:02:53.781Z,34.43
2018-12-27T19:05:40.229Z,31.12
2018-12-27T19:08:26.793Z,27.30
2018-12-27T19:11:33.196Z,23.92
2018-12-27T19:14:20.506Z,24.02
2018-12-27T19:16:48.225Z,25.95
2018-12-27T19:19:35.215Z,32.38
2018-12-27T19:22:28.232Z,34.70
2018-12-27T19:25:15.646Z,31.68
2018-12-27T19:28:02.462Z,30.20
2018-12-27T19:30:49.245Z,28.35
2018-12-27T19:33:36.137Z,26.68
2018-12-27T19:36:03.552Z,24.43
2018-12-27T19:38:50.936Z,25.60
2018-12-27T19:41:37.888Z,24.40
2018-12-27T19:44:27.520Z,25.45
2018-12-27T19:47:14.198Z,26.17
2018-12-27T19:50:01.586Z,26.00
2018-12-27T19:52:48.530Z,26.37
2018-12-27T19:55:35.345Z,25.25
2018-12-27T19:58:03.400Z,26.15
2018-12-27T20:00:43.689Z,26.20
2018-12-27T20:03:24.070Z,26.00
2018-12-27T20:06:07.299Z,25.97
2018-12-27T20:08:47.247Z,25.40
2018-12-27T20:11:27.527Z,28.73
2018-12-27T20:14:07.711Z,29.65
2018-12-27T20:16:34.542Z,27.25
2018-12-27T20:19:02.399Z,22.60
2018-12-27T20:21:30.534Z,24.40
2018-12-27T20:23:58.986Z,24.27
2018-12-27T20:26:26.114Z,24.43
2018-12-27T20:29:13.349Z,24.35
2018-12-27T20:32:00.082Z,22.02
2018-12-27T20:34:47.210Z,23.38
2018-12-27T20:37:34.039Z,21.00
2018-12-27T20:40:21.189Z,23.62
2018-12-27T20:43:08.452Z,20.52
2018-12-27T20:45:55.651Z,20.65
2018-12-27T20:48:24.160Z,23.12
2018-12-27T20:51:12.088Z,22.05
2018-12-27T20:53:58.598Z,23.10
2018-12-27T20:56:45.627Z,21.55
2018-12-27T20:59:33.003Z,24.00
2018-12-27T21:02:13.270Z,22.40
2018-12-27T21:04:53.655Z,22.35
2018-12-27T21:07:33.776Z,23.00
2018-12-27T21:10:13.508Z,23.00
2018-12-27T21:12:53.891Z,25.85
2018-12-27T21:15:33.745Z,22.42
2018-12-27T21:18:13.891Z,22.55
2018-12-27T21:20:54.238Z,24.90
2018-12-27T21:23:34.391Z,23.15
2018-12-27T21:26:14.381Z,23.90
2018-12-27T21:28:54.560Z,25.65
2018-12-27T21:31:34.870Z,37.05
2018-12-27T21:34:15.184Z,39.80
2018-12-27T21:36:55.178Z,45.15
2018-12-27T21:39:35.494Z,38.05
2018-12-27T21:42:15.330Z,33.90
2018-12-27T21:44:55.819Z,31.37
2018-12-27T21:47:36.026Z,29.27
2018-12-27T21:50:16.208Z,33.10
2018-12-27T21:52:56.071Z,29.67
2018-12-27T21:55:36.298Z,26.55
2018-12-27T21:58:16.574Z,26.75
2018-12-27T22:00:56.264Z,24.18
2018-12-27T22:03:36.997Z,22.13
2018-12-27T22:06:17.486Z,29.15
2018-12-27T22:08:57.929Z,24.63
2018-12-27T22:11:38.137Z,24.15
2018-12-27T22:14:17.860Z,26.20
2018-12-27T22:16:58.199Z,33.10
2018-12-27T22:19:38.074Z,30.85
2018-12-27T22:22:18.043Z,25.15
2018-12-27T22:24:57.567Z,26.95
2018-12-27T22:27:37.998Z,26.55
2018-12-27T22:30:17.935Z,26.12
2018-12-27T22:35:44.717Z,25.00
2018-12-27T22:38:35.572Z,20.90
2018-12-27T22:41:20.385Z,21.33
2018-12-27T22:44:07.701Z,18.65
2018-12-27T22:46:54.968Z,20.12
2018-12-27T22:49:41.749Z,21.17
2018-12-27T22:52:29.046Z,20.90
2018-12-27T22:55:16.023Z,20.70
2018-12-27T22:58:03.154Z,23.32
2018-12-27T23:00:43.090Z,21.50
2018-12-27T23:03:23.152Z,21.73
2018-12-27T23:06:03.482Z,23.52
2018-12-27T23:11:52.699Z,23.92
2018-12-27T23:14:32.906Z,23.35
2018-12-27T23:17:12.901Z,22.67
2018-12-27T23:19:53.342Z,22.25
2018-12-27T23:22:33.405Z,21.62
2018-12-27T23:25:13.193Z,23.20
2018-12-27T23:27:53.125Z,22.30
2018-12-27T23:30:33.471Z,23.55
2018-12-27T23:33:13.355Z,21.82
2018-12-27T23:35:41.246Z,22.98
2018-12-27T23:38:28.453Z,23.32
2018-12-27T23:41:15.722Z,24.00
2018-12-27T23:44:10.206Z,21.87
2018-12-27T23:46:57.185Z,23.02
2018-12-27T23:49:44.446Z,23.05
2018-12-27T23:52:31.145Z,23.60
2018-12-27T23:55:18.390Z,23.50
2018-12-27T23:58:05.753Z,25.35
